Time;durP1;ratioP1;P1;durP2;ratioP2;P2;SDS_P1;SDS_P2;PMS_P1;PMS_P2;Temp;Humidity;BMP_temperature;BMP_pressure;BME280_temperature;BME280_humidity;BME280_pressure;Samples;Min_cycle;Max_cycle;Signal;HPM_P1;HPM_P2
2024/04/17 00:01:48;;;;;;;21.90;5.28;;;;;;;20.54;48.09;97972.03;5125459;27;20015;-92
2024/04/17 00:04:17;;;;;;;18.58;4.70;;;;;;;20.46;48.09;97975.81;5102893;27;20084;-91
2024/04/17 00:06:43;;;;;;;24.08;5.22;;;;;;;20.47;48.29;97977.38;5157471;27;20005;-92
2024/04/17 00:09:09;;;;;;;24.77;4.93;;;;;;;20.34;48.23;97957.66;5156898;27;20339;-93
2024/04/17 00:11:35;;;;;;;23.13;5.18;;;;;;;20.36;48.32;97968.25;5129640;27;20012;-92
2024/04/17 00:14:01;;;;;;;21.15;5.35;;;;;;;20.28;48.46;97967.34;5156449;27;20001;-92
2024/04/17 00:16:27;;;;;;;22.67;4.93;;;;;;;20.26;48.46;97963.41;5129558;27;20381;-92
2024/04/17 00:18:53;;;;;;;24.98;4.68;;;;;;;20.25;48.60;97976.25;5156827;27;20004;-93
2024/04/17 00:21:21;;;;;;;16.65;4.60;;;;;;;20.10;48.62;97947.94;5129828;27;20462;-92
2024/04/17 00:23:47;;;;;;;21.83;5.38;;;;;;;20.18;48.44;97963.28;5130511;27;20056;-94
2024/04/17 00:26:12;;;;;;;21.42;4.70;;;;;;;20.10;48.82;97952.59;5103932;27;20173;-91
2024/04/17 00:28:39;;;;;;;19.55;5.18;;;;;;;20.12;48.97;97961.22;5129752;27;20368;-93
2024/04/17 00:31:05;;;;;;;20.60;6.47;;;;;;;20.06;49.00;97951.75;5126517;27;20008;-92
2024/04/17 00:33:31;;;;;;;16.88;4.32;;;;;;;19.96;49.26;97931.31;5126715;27;20001;-92
2024/04/17 00:35:57;;;;;;;15.45;3.75;;;;;;;19.95;49.60;97936.00;5128548;27;20007;-92
2024/04/17 00:38:23;;;;;;;20.83;4.35;;;;;;;19.85;49.64;97914.75;5103155;27;19993;-93
2024/04/17 00:40:49;;;;;;;20.05;4.88;;;;;;;19.84;49.91;97917.84;5156083;27;20517;-92
2024/04/17 00:43:15;;;;;;;25.98;4.35;;;;;;;19.75;50.18;97931.75;5155397;27;20033;-92
2024/04/17 00:45:45;;;;;;;28.25;5.13;;;;;;;19.73;49.79;97923.91;5104203;27;20001;-92
2024/04/17 00:48:12;;;;;;;16.73;5.18;;;;;;;19.78;50.49;97940.00;5130116;27;20016;-92
2024/04/17 00:50:39;;;;;;;19.85;4.03;;;;;;;19.67;50.94;97935.47;5127720;27;20011;-92
2024/04/17 00:53:06;;;;;;;19.05;5.22;;;;;;;19.25;51.61;97900.81;5129311;27;20012;-92
2024/04/17 00:55:35;;;;;;;21.40;4.93;;;;;;;19.32;51.56;97895.47;5102651;27;19997;-93
2024/04/17 00:58:02;;;;;;;25.20;4.35;;;;;;;19.31;52.34;97907.56;5154864;27;20008;-91
2024/04/17 01:00:30;;;;;;;21.13;5.15;;;;;;;19.21;52.64;97887.09;5102703;27;19997;-92
2024/04/17 01:02:57;;;;;;;22.30;5.03;;;;;;;18.98;52.83;97878.91;5122868;27;20008;-92
2024/04/17 01:05:23;;;;;;;21.58;4.80;;;;;;;19.02;53.90;97896.13;5155363;27;20464;-94
2024/04/17 01:07:50;;;;;;;22.95;5.32;;;;;;;18.77;53.92;97868.34;5128785;27;20004;-93
2024/04/17 01:10:15;;;;;;;22.00;4.68;;;;;;;18.88;54.10;97896.63;5128871;27;20008;-92
2024/04/17 01:12:42;;;;;;;18.13;5.20;;;;;;;18.79;54.15;97879.69;5129633;27;20329;-92
2024/04/17 01:15:09;;;;;;;24.52;5.00;;;;;;;18.76;54.07;97875.72;5156137;27;20004;-92
2024/04/17 01:17:38;;;;;;;20.85;4.85;;;;;;;18.62;54.07;97859.09;5142776;27;20009;-92
2024/04/17 01:20:04;;;;;;;26.90;5.32;;;;;;;18.45;55.97;97859.50;5180251;27;20005;-92
2024/04/17 01:22:30;;;;;;;27.77;5.13;;;;;;;18.31;55.67;97858.06;5127654;27;20008;-92
2024/04/17 01:24:56;;;;;;;20.80;5.10;;;;;;;18.39;56.43;97864.47;5168799;27;20460;-92
2024/04/17 01:27:21;;;;;;;13.02;4.60;;;;;;;18.28;56.40;97828.81;5142264;27;20011;-93
2024/04/17 01:29:47;;;;;;;15.05;4.07;;;;;;;18.41;55.97;97834.91;5125635;27;20019;-92
2024/04/17 01:32:13;;;;;;;24.15;5.13;;;;;;;18.31;55.69;97819.13;5142350;27;20436;-92
2024/04/17 01:34:38;;;;;;;19.33;5.55;;;;;;;18.28;56.23;97814.38;5155067;27;20063;-91
2024/04/17 01:37:05;;;;;;;18.65;4.93;;;;;;;18.21;56.10;97801.41;5128496;27;20001;-92
2024/04/17 01:39:31;;;;;;;21.58;6.30;;;;;;;18.15;56.27;97779.09;5142376;27;20004;-92
2024/04/17 01:41:57;;;;;;;21.70;6.38;;;;;;;18.04;56.63;97788.22;5180943;27;20061;-92
2024/04/17 01:44:23;;;;;;;23.88;5.35;;;;;;;17.90;57.34;97780.50;5149438;27;20012;-92
2024/04/17 01:46:49;;;;;;;24.67;5.28;;;;;;;18.01;57.12;97805.25;5163821;27;20004;-92
2024/04/17 01:49:14;;;;;;;13.77;6.03;;;;;;;18.07;57.42;97814.72;5101520;27;19992;-92
2024/04/17 01:51:40;;;;;;;22.73;4.75;;;;;;;17.96;56.98;97796.22;5154645;27;20015;-91
2024/04/17 01:54:07;;;;;;;18.35;4.90;;;;;;;18.04;56.72;97824.41;5101623;27;19997;-90
2024/04/17 01:56:38;;;;;;;16.08;4.82;;;;;;;18.02;56.35;97829.41;5128148;27;20004;-90
2024/04/17 01:59:07;;;;;;;21.77;4.72;;;;;;;18.11;55.93;97835.44;5156990;27;20104;-92
2024/04/17 02:01:35;;;;;;;16.88;4.30;;;;;;;18.00;54.48;97809.13;5135621;27;20011;-91
2024/04/17 02:04:02;;;;;;;13.38;4.22;;;;;;;18.14;54.33;97820.34;5134608;27;20423;-91
2024/04/17 02:06:27;;;;;;;9.82;3.80;;;;;;;18.05;54.07;97806.13;5159955;27;20015;-92
2024/04/17 02:08:56;;;;;;;14.23;3.47;;;;;;;18.01;54.01;97788.91;5160790;27;20011;-92
2024/04/17 02:11:24;;;;;;;10.90;4.20;;;;;;;17.89;53.74;97778.97;5159819;27;20000;-92
2024/04/17 02:13:51;;;;;;;11.43;3.97;;;;;;;17.86;53.59;97772.25;5188211;27;20056;-93
2024/04/17 02:16:18;;;;;;;9.70;3.88;;;;;;;17.80;54.43;97794.66;5134610;27;20000;-92
2024/04/17 02:18:45;;;;;;;15.45;4.25;;;;;;;17.67;56.36;97789.31;5161024;27;20000;-93
2024/04/17 02:21:11;;;;;;;13.82;4.70;;;;;;;17.58;56.56;97783.28;5187209;27;20022;-91
2024/04/17 02:23:36;;;;;;;9.05;3.97;;;;;;;17.54;56.91;97777.75;5188095;27;20004;-94
2024/04/17 02:26:03;;;;;;;15.52;4.95;;;;;;;17.47;56.75;97769.44;5134362;27;20051;-92
2024/04/17 02:28:30;;;;;;;13.85;4.22;;;;;;;17.54;56.47;97766.09;5161274;27;20000;-92
2024/04/17 02:30:55;;;;;;;14.32;4.18;;;;;;;17.39;56.98;97754.09;5188420;27;20011;-92
2024/04/17 02:33:21;;;;;;;11.77;3.78;;;;;;;17.52;57.17;97781.97;5160996;27;20008;-92
2024/04/17 02:36:04;;;;;;;12.45;4.30;;;;;;;17.41;56.96;97762.69;5135393;27;20008;-92
2024/04/17 02:38:31;;;;;;;11.73;4.80;;;;;;;17.25;57.89;97759.97;5133834;27;20014;-92
2024/04/17 02:40:58;;;;;;;18.05;5.20;;;;;;;17.15;57.60;97746.91;5160044;27;20431;-91
2024/04/17 02:43:24;;;;;;;17.05;4.35;;;;;;;17.19;57.83;97766.81;5186268;27;20029;-92
2024/04/17 02:45:49;;;;;;;13.95;5.07;;;;;;;17.04;58.07;97735.78;5161456;27;19996;-91
2024/04/17 02:48:16;;;;;;;12.05;4.45;;;;;;;17.08;57.60;97735.84;5161245;27;20000;-92
2024/04/17 02:50:43;;;;;;;17.25;4.63;;;;;;;17.20;57.86;97764.88;5160952;27;19996;-92
2024/04/17 02:53:09;;;;;;;11.10;4.03;;;;;;;16.99;58.29;97735.25;5187280;27;20019;-92
2024/04/17 02:55:35;;;;;;;20.48;4.47;;;;;;;17.12;58.70;97750.31;5188941;27;19992;-93
2024/04/17 02:58:01;;;;;;;14.02;4.57;;;;;;;16.94;58.46;97711.84;5163858;27;20003;-91
2024/04/17 03:00:29;;;;;;;11.88;4.43;;;;;;;16.94;58.76;97709.13;5137075;27;20003;-92
2024/04/17 03:02:55;;;;;;;13.15;4.22;;;;;;;17.13;58.73;97722.78;5134575;27;20007;-92
2024/04/17 03:05:23;;;;;;;11.25;4.57;;;;;;;17.00;58.55;97717.81;5163229;27;20000;-92
2024/04/17 03:07:50;;;;;;;8.63;3.90;;;;;;;16.98;57.35;97718.16;5136686;27;19991;-92
2024/04/17 03:10:16;;;;;;;17.92;4.65;;;;;;;17.08;57.27;97731.22;5189103;27;20067;-92
2024/04/17 03:12:42;;;;;;;14.70;4.60;;;;;;;17.21;57.34;97734.63;5162593;27;19995;-91
2024/04/17 03:15:12;;;;;;;9.73;4.13;;;;;;;17.14;56.41;97708.06;5162289;27;20052;-93
2024/04/17 03:17:38;;;;;;;13.70;4.60;;;;;;;17.27;56.21;97710.66;5144398;27;19991;-92
2024/04/17 03:20:04;;;;;;;8.70;3.95;;;;;;;17.34;56.12;97725.19;5166213;27;20011;-93
2024/04/17 03:22:29;;;;;;;7.25;3.90;;;;;;;17.29;56.28;97732.88;5164833;27;20430;-91
2024/04/17 03:24:58;;;;;;;11.50;4.00;;;;;;;17.40;56.16;97742.06;5189488;27;20006;-92
2024/04/17 03:27:24;;;;;;;10.07;3.90;;;;;;;17.42;55.87;97726.16;5136460;27;20366;-92
2024/04/17 03:29:51;;;;;;;12.45;3.97;;;;;;;17.35;55.97;97712.41;5162190;27;20039;-92
2024/04/17 03:32:18;;;;;;;8.73;3.80;;;;;;;17.51;56.06;97739.56;5187302;27;20000;-92
2024/04/17 03:34:47;;;;;;;16.48;4.13;;;;;;;17.49;56.17;97722.81;5151762;27;20004;-91
2024/04/17 03:37:15;;;;;;;8.15;3.75;;;;;;;17.58;55.83;97729.63;5154773;27;20042;-92
2024/04/17 03:39:42;;;;;;;12.23;3.60;;;;;;;17.46;55.96;97710.72;5135940;27;20004;-91
2024/04/17 03:42:08;;;;;;;10.30;3.80;;;;;;;17.39;55.82;97694.25;5163614;27;20431;-92
2024/04/17 03:44:34;;;;;;;12.55;3.70;;;;;;;17.54;55.65;97712.44;5161847;27;20004;-90
2024/04/17 03:47:03;;;;;;;10.45;3.78;;;;;;;17.61;54.97;97706.38;5135650;27;20007;-91
2024/04/17 03:49:29;;;;;;;7.93;3.95;;;;;;;17.65;55.00;97720.06;5189632;27;20000;-91
2024/04/17 03:51:55;;;;;;;13.98;4.20;;;;;;;17.63;55.00;97717.69;5135963;27;20048;-92
2024/04/17 03:54:21;;;;;;;14.60;4.60;;;;;;;17.55;55.82;97694.19;5156245;27;20088;-91
2024/04/17 03:56:48;;;;;;;16.27;5.05;;;;;;;17.40;57.41;97697.75;5128834;27;20004;-93
2024/04/17 03:59:14;;;;;;;15.68;5.28;;;;;;;17.39;58.12;97705.13;5129985;27;20120;-92
2024/04/17 04:01:44;;;;;;;11.93;4.80;;;;;;;17.32;58.53;97724.78;5094459;27;20017;-93
2024/04/17 04:04:13;;;;;;;12.93;4.97;;;;;;;17.32;57.63;97707.66;5098454;27;20119;-92
2024/04/17 04:06:42;;;;;;;14.20;4.82;;;;;;;17.45;57.08;97714.59;5098548;27;20021;-93
2024/04/17 04:09:08;;;;;;;15.18;4.50;;;;;;;17.45;56.78;97705.63;5098737;27;20009;-94
2024/04/17 04:11:35;;;;;;;12.65;4.35;;;;;;;17.53;56.32;97715.50;5145489;27;20008;-94
2024/04/17 04:14:01;;;;;;;20.98;4.53;;;;;;;17.63;56.00;97714.19;5103210;27;20004;-92
2024/04/17 04:16:28;;;;;;;12.98;4.25;;;;;;;17.59;55.91;97697.75;5136716;27;20019;-92
2024/04/17 04:18:54;;;;;;;10.02;4.93;;;;;;;17.54;56.45;97685.22;5161491;27;20022;-93
2024/04/17 04:21:23;;;;;;;15.85;5.78;;;;;;;17.58;56.28;97686.09;5152409;27;20008;-92
2024/04/17 04:23:49;;;;;;;11.88;4.25;;;;;;;17.65;56.19;97709.16;5111261;27;20015;-92
2024/04/17 04:26:15;;;;;;;16.10;4.90;;;;;;;17.63;55.78;97697.84;5104955;27;20005;-94
2024/04/17 04:28:41;;;;;;;16.45;4.10;;;;;;;17.59;56.01;97716.81;5156008;27;20012;-92
2024/04/17 04:31:14;;;;;;;12.90;4.80;;;;;;;17.66;56.06;97717.00;5138537;27;20048;-92
2024/04/17 04:33:42;;;;;;;11.82;4.57;;;;;;;17.72;56.15;97692.97;5109382;27;20001;-91
2024/04/17 04:36:09;;;;;;;10.77;4.60;;;;;;;17.94;55.65;97714.09;5154686;27;20017;-93
2024/04/17 04:42:18;;;;;;;13.65;4.07;;;;;;;18.15;55.33;97718.38;5078120;27;20015;-93
2024/04/17 04:48:23;;;;;;;13.50;4.40;;;;;;;18.36;54.67;97713.38;5091277;28;20009;-93
2024/04/17 04:51:04;;;;;;;14.00;3.65;;;;;;;18.37;54.71;97695.84;5061863;27;20008;-94
2024/04/17 04:57:55;;;;;;;10.82;3.95;;;;;;;18.60;54.62;97721.56;5001624;28;20003;-93
2024/04/17 05:03:54;;;;;;;13.52;4.25;;;;;;;18.68;54.60;97715.09;5058362;28;20006;-92
2024/04/17 05:06:37;;;;;;;14.18;4.57;;;;;;;18.58;54.52;97698.19;5004118;28;20003;-93
2024/04/17 05:09:09;;;;;;;14.00;5.70;;;;;;;18.65;54.71;97702.97;5058378;28;20010;-94
2024/04/17 05:15:33;;;;;;;11.73;4.40;;;;;;;19.03;53.88;97714.94;4929924;29;20152;-94
2024/04/17 05:22:00;;;;;;;17.40;5.55;;;;;;;19.01;54.05;97662.69;4877008;29;19999;-96
2024/04/17 05:28:19;;;;;;;27.95;5.13;;;;;;;19.26;52.18;97664.97;4916227;29;20043;-96
2024/04/17 05:34:34;;;;;;;24.20;10.93;;;;;;;19.42;53.05;97649.22;4781098;29;20009;-95
2024/04/17 05:40:32;;;;;;;11.48;4.43;;;;;;;20.07;51.68;97672.69;4858674;29;20321;-93
2024/04/17 05:43:21;;;;;;;21.27;7.88;;;;;;;20.26;51.44;97676.41;4791704;29;20008;-93
2024/04/17 05:46:27;;;;;;;;;;;;;;;;;;;;;
2024/04/17 05:49:19;;;;;;;15.85;5.75;;;;;;;20.34;50.11;97632.38;4903771;29;20401;-94
2024/04/17 05:52:11;;;;;;;13.02;5.07;;;;;;;20.42;49.69;97624.22;4911045;29;20005;-94
2024/04/17 05:58:29;;;;;;;17.17;6.53;;;;;;;20.31;49.65;97613.19;4956454;28;20084;-95
2024/04/17 06:01:40;;;;;;;11.80;4.55;;;;;;;20.47;49.69;97634.84;4952386;28;20152;-95
2024/04/17 06:04:25;;;;;;;18.52;5.10;;;;;;;20.27;49.68;97599.50;4963900;28;20004;-96
2024/04/17 06:06:54;;;;;;;15.15;4.65;;;;;;;20.42;49.39;97622.28;4967309;28;20190;-94
2024/04/17 06:09:29;;;;;;;17.63;4.90;;;;;;;20.29;48.93;97607.31;4998921;28;20130;-94
2024/04/17 06:12:35;;;;;;;17.30;6.70;;;;;;;20.51;49.45;97639.16;5018046;28;20069;-93
2024/04/17 06:15:47;;;;;;;;;;;;;;;;;;;;;
2024/04/17 06:25:51;;;;;;;;;;;;;;;;;;;;;
2024/04/17 06:28:32;;;;;;;17.02;4.72;;;;;;;20.76;48.99;97614.00;4985187;28;19998;-95
2024/04/17 06:34:53;;;;;;;20.90;8.20;;;;;;;20.94;48.32;97605.94;5025661;28;20046;-93
2024/04/17 06:38:01;;;;;;;46.65;32.58;;;;;;;20.99;47.87;97617.28;4950088;28;20249;-93
2024/04/17 06:41:00;;;;;;;13.48;3.92;;;;;;;21.12;47.96;97630.66;5021706;28;20649;-96
2024/04/17 06:43:28;;;;;;;30.70;17.77;;;;;;;21.06;47.98;97638.44;4986509;28;20090;-96
2024/04/17 06:49:26;;;;;;;10.80;4.15;;;;;;;21.72;46.81;97654.09;4923518;29;20014;-95
2024/04/17 06:55:14;;;;;;;11.35;4.18;;;;;;;22.13;45.65;97659.34;4885060;29;20021;-94
2024/04/17 07:02:17;;;;;;;;;;;;;;;;;;;;;
2024/04/17 07:05:19;;;;;;;15.43;7.55;;;;;;;22.56;45.21;97662.19;4892619;29;20166;-95
